Time;durP1;ratioP1;P1;durP2;ratioP2;P2;SDS_P1;SDS_P2;PMS_P1;PMS_P2;Temp;Humidity;BMP_temperature;BMP_pressure;BME280_temperature;BME280_humidity;BME280_pressure;Samples;Min_cycle;Max_cycle;Signal;HPM_P1;HPM_P2
2022/07/10 00:00:28;;;;;;;9.13;2.93;;;;;;;12.75;80.85;102629.16;5084118;28;20123;-77
2022/07/10 00:02:53;;;;;;;6.27;2.30;;;;;;;12.74;81.05;102626.63;5082358;28;20059;-78
2022/07/10 00:05:19;;;;;;;8.03;2.60;;;;;;;12.79;81.51;102640.53;5084245;28;20056;-82
2022/07/10 00:07:45;;;;;;;7.03;2.40;;;;;;;12.79;80.84;102640.53;5083860;28;20059;-79
2022/07/10 00:10:11;;;;;;;8.27;2.43;;;;;;;12.80;80.93;102642.22;5081027;28;20055;-77
2022/07/10 00:12:36;;;;;;;5.63;2.30;;;;;;;12.73;81.20;102627.63;5085600;28;20050;-77
2022/07/10 00:15:03;;;;;;;6.50;2.40;;;;;;;12.73;80.86;102623.06;5095619;28;20062;-77
2022/07/10 00:17:29;;;;;;;5.43;2.10;;;;;;;12.74;80.89;102623.91;5094017;28;20472;-77
2022/07/10 00:19:54;;;;;;;6.60;2.57;;;;;;;12.71;80.82;102622.38;5087652;28;20040;-81
2022/07/10 00:22:21;;;;;;;6.67;2.23;;;;;;;12.71;80.94;102627.00;5082863;28;20027;-77
2022/07/10 00:24:46;;;;;;;9.80;2.87;;;;;;;12.68;81.30;102625.47;5081750;28;20537;-78
2022/07/10 00:27:11;;;;;;;4.90;2.50;;;;;;;12.67;81.36;102621.06;5084085;28;20139;-79
2022/07/10 00:29:37;;;;;;;7.20;2.67;;;;;;;12.66;80.97;102622.06;5082680;28;20145;-78
2022/07/10 00:32:03;;;;;;;7.53;2.40;;;;;;;12.59;81.49;102607.53;5081829;28;20103;-79
2022/07/10 00:34:28;;;;;;;8.07;2.70;;;;;;;12.61;81.44;102624.53;5081493;28;20085;-77
2022/07/10 00:36:53;;;;;;;6.97;2.87;;;;;;;12.58;81.52;102628.44;5081539;28;20438;-77
2022/07/10 00:39:19;;;;;;;7.03;2.50;;;;;;;12.62;81.57;102618.03;5081512;28;20040;-78
2022/07/10 00:41:44;;;;;;;6.63;2.57;;;;;;;12.60;81.73;102612.78;5081679;28;20471;-77
2022/07/10 00:44:09;;;;;;;7.97;2.90;;;;;;;12.61;81.63;102614.47;5090878;28;20040;-76
2022/07/10 00:46:35;;;;;;;9.93;2.90;;;;;;;12.56;81.91;102611.44;5094185;28;20110;-77
2022/07/10 00:49:00;;;;;;;4.63;2.50;;;;;;;12.56;81.91;102616.88;5093660;28;20070;-77
2022/07/10 00:51:28;;;;;;;11.50;2.90;;;;;;;12.58;82.03;102605.81;5082954;28;20069;-77
2022/07/10 00:53:54;;;;;;;6.77;2.43;;;;;;;12.63;82.38;102609.72;5082515;28;20040;-77
2022/07/10 00:56:23;;;;;;;7.33;3.00;;;;;;;12.61;82.06;102606.31;5081411;28;20089;-78
2022/07/10 00:58:50;;;;;;;10.50;2.90;;;;;;;12.59;82.18;102602.94;5080774;28;20058;-77
2022/07/10 01:01:16;;;;;;;9.27;2.53;;;;;;;12.59;82.08;102594.78;5082434;28;20031;-79
2022/07/10 01:03:45;;;;;;;10.47;2.80;;;;;;;12.59;82.39;102597.50;5081866;28;20480;-76
2022/07/10 01:06:11;;;;;;;7.13;2.60;;;;;;;12.57;82.46;102587.84;5044142;28;20451;-77
2022/07/10 01:08:36;;;;;;;6.23;2.60;;;;;;;12.54;82.53;102589.06;5060410;28;20183;-77
2022/07/10 01:11:02;;;;;;;7.17;2.60;;;;;;;12.54;82.44;102583.63;5063136;28;20043;-83
2022/07/10 01:13:27;;;;;;;6.97;2.67;;;;;;;12.56;82.79;102580.72;5058605;28;21457;-79
2022/07/10 01:15:53;;;;;;;7.77;2.73;;;;;;;12.54;82.10;102567.31;5059226;28;20180;-77
2022/07/10 01:18:19;;;;;;;7.53;2.60;;;;;;;12.62;82.12;102578.09;5061533;28;20044;-77
2022/07/10 01:20:45;;;;;;;7.20;2.77;;;;;;;12.59;82.64;102575.75;5062092;28;20033;-77
2022/07/10 01:23:11;;;;;;;8.17;2.63;;;;;;;12.56;82.41;102570.66;5061385;28;20025;-78
2022/07/10 01:25:36;;;;;;;4.53;2.30;;;;;;;12.52;84.41;102569.34;5060856;28;20488;-77
2022/07/10 01:28:02;;;;;;;6.23;2.63;;;;;;;12.49;83.77;102577.88;5063063;28;20055;-77
2022/07/10 01:30:27;;;;;;;7.10;2.87;;;;;;;12.37;83.91;102577.44;5060371;28;20044;-77
2022/07/10 01:32:53;;;;;;;8.77;3.00;;;;;;;12.39;83.75;102574.53;5062149;28;20024;-77
2022/07/10 01:35:19;;;;;;;7.13;2.90;;;;;;;12.40;83.39;102570.81;5042612;28;20045;-78
2022/07/10 01:37:45;;;;;;;8.93;3.07;;;;;;;12.32;84.50;102583.44;5061811;28;20035;-78
2022/07/10 01:40:11;;;;;;;7.33;3.10;;;;;;;12.35;84.04;102589.53;5063384;28;20427;-76
2022/07/10 01:42:37;;;;;;;7.23;3.27;;;;;;;12.32;83.52;102580.72;5061080;28;20090;-77
2022/07/10 01:45:05;;;;;;;6.40;3.00;;;;;;;12.29;84.03;102578.38;5060904;28;20049;-81
2022/07/10 01:47:30;;;;;;;9.33;3.60;;;;;;;12.30;84.44;102582.75;5060997;28;20020;-77
2022/07/10 01:49:55;;;;;;;9.23;3.30;;;;;;;12.23;84.48;102572.81;5063936;28;20040;-77
2022/07/10 01:52:21;;;;;;;8.93;3.40;;;;;;;12.23;84.53;102573.66;5073739;28;20115;-76
2022/07/10 01:54:47;;;;;;;9.17;3.47;;;;;;;12.23;85.15;102572.81;5073724;28;20491;-77
2022/07/10 01:57:13;;;;;;;9.83;3.30;;;;;;;12.17;84.91;102579.78;5065094;28;20033;-82
2022/07/10 01:59:39;;;;;;;8.83;3.30;;;;;;;12.20;84.87;102581.31;5065081;28;20469;-77
2022/07/10 02:02:05;;;;;;;7.10;3.30;;;;;;;12.20;85.36;102578.59;5066071;28;20432;-77
2022/07/10 02:04:43;;;;;;;5.90;2.90;;;;;;;12.16;85.53;102575.41;5069591;28;20079;-76
2022/07/10 02:07:15;;;;;;;9.47;3.13;;;;;;;11.95;85.80;102551.56;5068159;28;20024;-77
2022/07/10 02:09:41;;;;;;;9.60;3.37;;;;;;;12.09;85.69;102577.13;5077160;28;20070;-76
2022/07/10 02:12:08;;;;;;;10.27;3.50;;;;;;;12.07;85.94;102565.59;5056500;28;20070;-78
2022/07/10 02:14:33;;;;;;;12.23;3.20;;;;;;;12.01;86.03;102560.88;5074003;28;20032;-79
2022/07/10 02:16:59;;;;;;;7.63;3.40;;;;;;;11.98;85.85;102552.06;5076316;28;20028;-77
2022/07/10 02:19:24;;;;;;;8.67;3.40;;;;;;;11.99;85.93;102558.34;5038284;28;20105;-77
2022/07/10 02:21:50;;;;;;;10.53;3.80;;;;;;;11.92;86.30;102562.78;5065242;28;20028;-78
2022/07/10 02:24:16;;;;;;;9.00;3.47;;;;;;;11.96;86.39;102566.84;5064025;28;20043;-77
2022/07/10 02:26:41;;;;;;;8.40;3.40;;;;;;;11.96;86.39;102564.97;5066328;28;20029;-77
2022/07/10 02:29:07;;;;;;;9.00;3.93;;;;;;;11.92;86.50;102577.19;5047937;28;20060;-78
2022/07/10 02:31:34;;;;;;;11.43;3.77;;;;;;;11.93;86.90;102576.19;5047749;28;20469;-77
2022/07/10 02:34:00;;;;;;;9.00;3.57;;;;;;;11.86;87.10;102568.91;5065464;28;20028;-77
2022/07/10 02:36:26;;;;;;;9.50;3.70;;;;;;;11.86;87.20;102572.50;5063593;28;20044;-78
2022/07/10 02:38:51;;;;;;;10.03;3.83;;;;;;;11.88;87.43;102567.72;5065271;28;20465;-78
2022/07/10 02:41:16;;;;;;;12.50;3.77;;;;;;;11.88;87.64;102556.84;5063950;28;20036;-81
2022/07/10 02:43:41;;;;;;;11.77;3.60;;;;;;;11.94;87.97;102567.03;5064367;28;20056;-79
2022/07/10 02:46:07;;;;;;;9.07;3.60;;;;;;;11.98;87.94;102556.66;5063509;28;20072;-79
2022/07/10 02:48:32;;;;;;;8.33;3.53;;;;;;;11.93;87.81;102543.56;5064573;28;20052;-77
2022/07/10 02:50:58;;;;;;;10.07;3.60;;;;;;;12.06;87.95;102563.91;5068829;28;20067;-78
2022/07/10 02:53:23;;;;;;;8.73;3.50;;;;;;;12.09;87.75;102558.09;5066790;28;20091;-79
2022/07/10 02:55:48;;;;;;;10.00;3.80;;;;;;;12.09;87.72;102545.38;5064463;28;20029;-79
2022/07/10 02:58:15;;;;;;;8.87;3.80;;;;;;;12.09;87.76;102547.22;5063689;28;20062;-80
2022/07/10 03:00:41;;;;;;;10.20;3.73;;;;;;;12.11;87.52;102547.91;5064095;28;20020;-78
2022/07/10 03:03:07;;;;;;;8.83;3.90;;;;;;;12.09;87.93;102553.53;5044155;28;20052;-77
2022/07/10 03:05:33;;;;;;;8.90;3.80;;;;;;;12.09;87.46;102547.22;5065602;28;20033;-77
2022/07/10 03:07:58;;;;;;;9.47;3.57;;;;;;;12.03;87.59;102535.22;5062564;28;20519;-77
2022/07/10 03:10:24;;;;;;;7.83;3.60;;;;;;;12.05;88.59;102540.47;5064330;28;20067;-77
2022/07/10 03:12:49;;;;;;;6.23;3.53;;;;;;;12.03;88.21;102556.97;5031336;28;20028;-78
2022/07/10 03:15:15;;;;;;;11.00;3.77;;;;;;;11.98;87.97;102543.06;5064410;28;20036;-81
2022/07/10 03:17:40;;;;;;;8.43;3.57;;;;;;;12.02;88.43;102540.84;5064382;28;20024;-77
2022/07/10 03:20:07;;;;;;;11.47;3.80;;;;;;;12.02;88.74;102547.09;5047365;28;20044;-77
2022/07/10 03:22:32;;;;;;;11.53;3.87;;;;;;;12.03;89.89;102556.13;5075035;28;20475;-77
2022/07/10 03:24:58;;;;;;;8.87;3.67;;;;;;;12.04;89.22;102555.94;5072668;28;20035;-77
2022/07/10 03:27:24;;;;;;;10.10;3.77;;;;;;;12.07;88.93;102560.16;5072671;28;20028;-77
2022/07/10 03:29:49;;;;;;;12.20;3.50;;;;;;;12.09;88.74;102560.81;5044964;28;20071;-81
2022/07/10 03:32:15;;;;;;;8.57;3.50;;;;;;;12.14;88.28;102545.69;5063654;28;20041;-76
2022/07/10 03:34:40;;;;;;;9.57;3.63;;;;;;;12.17;88.32;102544.47;5046921;28;20104;-77
2022/07/10 03:37:05;;;;;;;8.53;3.30;;;;;;;12.18;88.55;102543.44;5063708;28;20440;-77
2022/07/10 03:39:31;;;;;;;8.13;3.70;;;;;;;12.24;88.53;102539.16;5070591;28;20024;-78
2022/07/10 03:41:56;;;;;;;9.80;3.80;;;;;;;12.23;88.47;102530.16;5053141;28;20036;-77
2022/07/10 03:44:22;;;;;;;10.40;3.80;;;;;;;12.28;88.50;102535.03;5064176;28;20438;-78
2022/07/10 03:46:47;;;;;;;8.60;3.90;;;;;;;12.31;88.44;102535.53;5063778;28;20059;-78
2022/07/10 03:49:12;;;;;;;11.33;3.90;;;;;;;12.29;88.23;102537.59;5062316;28;20024;-77
2022/07/10 03:51:37;;;;;;;8.43;3.77;;;;;;;12.29;88.35;102534.88;5047938;28;20045;-79
2022/07/10 03:54:03;;;;;;;9.93;3.87;;;;;;;12.23;87.92;102526.63;5063660;28;20499;-77
2022/07/10 03:59:12;;;;;;;7.93;3.70;;;;;;;12.26;88.38;102531.69;5063876;28;20031;-77
2022/07/10 04:01:38;;;;;;;6.97;3.40;;;;;;;12.24;88.58;102528.28;5062966;28;20036;-79
2022/07/10 04:04:04;;;;;;;11.03;3.93;;;;;;;12.24;88.78;102536.44;5065675;28;20391;-77
2022/07/10 04:06:29;;;;;;;13.67;3.90;;;;;;;12.24;88.76;102531.00;5062509;28;20036;-81
2022/07/10 04:08:54;;;;;;;8.33;3.77;;;;;;;12.16;88.12;102519.16;5066183;28;20102;-77
2022/07/10 04:11:20;;;;;;;10.67;3.87;;;;;;;12.27;88.96;102530.66;5067224;28;20372;-77
2022/07/10 04:13:45;;;;;;;10.90;3.67;;;;;;;12.28;88.71;102535.03;5028221;28;20024;-78
2022/07/10 04:16:12;;;;;;;8.67;3.50;;;;;;;12.30;88.59;102527.56;5063451;28;20040;-77
2022/07/10 04:18:39;;;;;;;9.83;3.70;;;;;;;12.30;88.72;102520.25;5061756;28;20036;-77
2022/07/10 04:21:05;;;;;;;10.20;3.80;;;;;;;12.30;88.41;102512.09;5062124;28;20039;-78
2022/07/10 04:23:31;;;;;;;8.03;3.43;;;;;;;12.42;88.44;102536.97;5063628;28;20036;-81
2022/07/10 04:25:57;;;;;;;7.27;3.70;;;;;;;12.43;89.81;102529.66;5062336;28;20033;-78
2022/07/10 04:28:22;;;;;;;12.13;3.60;;;;;;;12.49;88.94;102528.94;5062498;28;20032;-77
2022/07/10 04:30:47;;;;;;;10.03;3.43;;;;;;;12.52;88.04;102530.44;5061708;28;20067;-78
2022/07/10 04:33:13;;;;;;;9.27;3.53;;;;;;;12.56;87.80;102534.50;5063716;28;20056;-83
2022/07/10 04:35:38;;;;;;;10.97;3.60;;;;;;;12.57;88.79;102536.19;5059824;28;20056;-77
2022/07/10 04:38:03;;;;;;;12.60;3.90;;;;;;;12.61;88.22;102537.50;5062668;28;20480;-77
2022/07/10 04:40:29;;;;;;;12.37;3.60;;;;;;;12.59;87.88;102529.53;5046118;28;20028;-78
2022/07/10 04:42:54;;;;;;;12.67;3.67;;;;;;;12.64;87.88;102539.84;5061618;28;20115;-77
2022/07/10 04:45:19;;;;;;;8.53;3.13;;;;;;;12.65;87.88;102536.94;5060689;28;20113;-81
2022/07/10 04:47:45;;;;;;;12.17;3.60;;;;;;;12.66;87.96;102538.63;5059734;28;20025;-77
2022/07/10 04:50:10;;;;;;;11.00;3.70;;;;;;;12.65;88.51;102531.50;5062778;28;20469;-77
2022/07/10 04:52:36;;;;;;;8.83;3.43;;;;;;;12.67;88.41;102536.75;5058820;28;20032;-77
2022/07/10 04:55:01;;;;;;;8.80;3.30;;;;;;;12.68;87.75;102529.47;5071744;28;20536;-77
2022/07/10 04:57:27;;;;;;;5.63;3.00;;;;;;;12.75;87.99;102525.78;5073329;28;20116;-76
2022/07/10 04:59:53;;;;;;;8.17;3.23;;;;;;;12.76;87.80;102529.38;5071716;28;20063;-77
2022/07/10 05:02:18;;;;;;;8.93;3.03;;;;;;;12.76;87.65;102532.09;5045775;28;20039;-76
2022/07/10 05:04:44;;;;;;;8.67;3.40;;;;;;;12.85;87.71;102547.28;5067416;28;20056;-76
2022/07/10 05:07:14;;;;;;;7.53;3.40;;;;;;;12.89;88.02;102548.63;5092406;28;20024;-76
2022/07/10 05:09:39;;;;;;;7.47;3.33;;;;;;;12.93;87.60;102540.91;5092587;28;20410;-77
2022/07/10 05:12:05;;;;;;;7.50;2.93;;;;;;;12.95;87.60;102550.59;5090006;28;20106;-77
2022/07/10 05:14:31;;;;;;;10.27;3.43;;;;;;;13.00;87.56;102555.47;5090594;28;20019;-77
2022/07/10 05:16:56;;;;;;;10.37;3.30;;;;;;;13.02;87.24;102552.59;5072829;28;20383;-77
2022/07/10 05:19:22;;;;;;;8.30;3.07;;;;;;;13.05;86.87;102553.03;5086859;28;20120;-77
2022/07/10 05:21:47;;;;;;;10.70;3.23;;;;;;;13.09;86.81;102548.06;5081074;28;20043;-77
2022/07/10 05:24:13;;;;;;;10.10;3.07;;;;;;;13.15;87.33;102547.31;5078603;28;20032;-77
2022/07/10 05:26:38;;;;;;;8.43;3.03;;;;;;;13.17;87.00;102539.81;5086761;28;20032;-81
2022/07/10 05:29:03;;;;;;;9.00;3.53;;;;;;;13.14;86.99;102540.19;5081326;28;20032;-77
2022/07/10 05:31:29;;;;;;;8.77;3.20;;;;;;;13.23;87.24;102554.53;5080894;28;23461;-81
2022/07/10 05:33:54;;;;;;;9.20;3.47;;;;;;;13.26;86.79;102551.44;5079526;28;20029;-82
2022/07/10 05:36:20;;;;;;;7.27;3.20;;;;;;;13.38;87.01;102546.41;5077774;28;20040;-77
2022/07/10 05:38:45;;;;;;;8.37;3.00;;;;;;;13.43;86.38;102550.25;5080731;28;20044;-77
2022/07/10 05:41:10;;;;;;;10.97;3.60;;;;;;;13.52;86.81;102553.72;5084556;28;20100;-77
2022/07/10 05:43:36;;;;;;;10.33;3.23;;;;;;;13.55;86.47;102544.34;5084640;28;20174;-80
2022/07/10 05:46:01;;;;;;;8.03;3.20;;;;;;;13.65;86.73;102551.19;5072922;28;20535;-82
2022/07/10 05:48:27;;;;;;;8.70;2.90;;;;;;;13.71;86.99;102546.84;5081829;28;20032;-76
2022/07/10 05:50:52;;;;;;;7.03;2.70;;;;;;;13.81;85.53;102554.69;5076299;28;20028;-81
2022/07/10 05:53:19;;;;;;;11.80;3.10;;;;;;;13.87;85.95;102558.53;5075250;28;20482;-77
2022/07/10 05:55:48;;;;;;;8.63;3.00;;;;;;;13.92;85.68;102559.66;5087084;28;20032;-76
2022/07/10 05:58:14;;;;;;;9.77;3.27;;;;;;;14.05;85.01;102552.66;5079390;28;20035;-82
2022/07/10 06:00:39;;;;;;;10.23;2.90;;;;;;;14.13;84.99;102544.34;5072822;28;20036;-79
2022/07/10 06:03:05;;;;;;;6.47;2.70;;;;;;;14.18;83.81;102531.84;5071846;28;20044;-79
2022/07/10 06:05:30;;;;;;;7.70;2.23;;;;;;;14.24;82.37;102537.53;5072389;28;20128;-78
2022/07/10 06:07:55;;;;;;;8.57;2.80;;;;;;;14.31;82.96;102542.03;5075548;28;20093;-78
2022/07/10 06:10:21;;;;;;;10.47;2.63;;;;;;;14.45;82.38;102553.06;5079637;28;20115;-77
2022/07/10 06:12:46;;;;;;;10.43;2.73;;;;;;;14.61;82.62;102543.75;5078372;28;20127;-77
2022/07/10 06:15:12;;;;;;;10.47;2.67;;;;;;;14.75;81.82;102551.03;5083295;28;20039;-77
2022/07/10 06:17:37;;;;;;;9.27;2.37;;;;;;;14.89;81.13;102551.13;5089882;28;20103;-77
2022/07/10 06:20:03;;;;;;;10.30;2.80;;;;;;;14.94;80.46;102551.38;5079052;28;20444;-78
2022/07/10 06:22:31;;;;;;;9.03;2.30;;;;;;;14.96;79.39;102546.53;5079755;28;20042;-77
2022/07/10 06:24:58;;;;;;;9.07;2.23;;;;;;;14.99;79.42;102547.00;5079520;28;20028;-81
2022/07/10 06:27:24;;;;;;;9.63;2.40;;;;;;;15.05;79.40;102549.97;5078932;28;20040;-80
2022/07/10 06:29:49;;;;;;;8.87;2.50;;;;;;;15.11;79.37;102536.38;5078522;28;20494;-81
2022/07/10 06:32:15;;;;;;;6.30;2.10;;;;;;;15.19;79.04;102546.28;5078420;28;20032;-77
2022/07/10 06:34:40;;;;;;;9.13;2.70;;;;;;;15.24;77.89;102540.22;5081490;28;20035;-81
2022/07/10 06:37:05;;;;;;;9.73;2.47;;;;;;;15.36;77.90;102542.16;5079293;28;20036;-79
2022/07/10 06:39:37;;;;;;;8.73;2.63;;;;;;;15.48;77.83;102544.34;5086336;28;20456;-78
2022/07/10 06:42:08;;;;;;;7.47;2.33;;;;;;;15.61;77.47;102540.81;5089501;28;20046;-78
2022/07/10 06:44:34;;;;;;;8.20;2.40;;;;;;;15.69;77.23;102541.50;5081603;28;20032;-77
2022/07/10 06:49:46;;;;;;;11.95;2.83;;;;;;;15.65;75.03;102539.34;5083409;28;20046;-82
2022/07/10 06:52:12;;;;;;;6.93;2.17;;;;;;;15.69;75.91;102544.22;5080782;28;20061;-78
2022/07/10 06:54:38;;;;;;;9.47;2.60;;;;;;;15.62;76.18;102528.84;5082789;28;20032;-78
2022/07/10 06:57:04;;;;;;;9.23;2.40;;;;;;;15.74;75.63;102540.03;5081917;28;20535;-79
2022/07/10 06:59:29;;;;;;;7.70;2.30;;;;;;;15.67;75.83;102524.44;5083645;28;20053;-79
2022/07/10 07:01:54;;;;;;;10.50;2.30;;;;;;;15.75;75.79;102537.09;5082539;28;20031;-78
2022/07/10 07:04:20;;;;;;;11.50;2.63;;;;;;;15.75;75.84;102536.22;5076186;28;20060;-77
2022/07/10 07:06:45;;;;;;;8.73;2.43;;;;;;;15.81;76.55;102538.19;5033749;28;20062;-78
2022/07/10 07:09:11;;;;;;;8.63;2.53;;;;;;;15.88;75.60;102544.50;5040823;28;20123;-77
2022/07/10 07:11:36;;;;;;;9.13;2.30;;;;;;;15.91;74.81;102546.84;5074620;28;20060;-77
2022/07/10 07:14:02;;;;;;;7.80;2.10;;;;;;;15.98;73.88;102546.84;5057260;28;20064;-77
2022/07/10 07:16:38;;;;;;;13.10;2.40;;;;;;;16.10;75.46;102544.34;5073748;28;21495;-77
2022/07/10 07:19:04;;;;;;;5.70;2.20;;;;;;;16.14;73.92;102557.41;5062869;28;20028;-77
2022/07/10 07:24:15;;;;;;;9.13;2.30;;;;;;;16.18;73.23;102552.34;5060474;28;20099;-78
2022/07/10 07:26:40;;;;;;;9.30;2.47;;;;;;;16.19;73.40;102554.03;5063519;28;20024;-78
2022/07/10 07:29:05;;;;;;;9.70;2.50;;;;;;;16.21;75.07;102549.22;5043725;28;20044;-78
2022/07/10 07:31:31;;;;;;;9.97;2.80;;;;;;;16.14;73.67;102551.09;5070960;28;20029;-78
2022/07/10 07:33:57;;;;;;;10.43;2.70;;;;;;;16.17;73.67;102553.44;5062014;28;20468;-82
2022/07/10 07:36:22;;;;;;;11.63;2.93;;;;;;;16.23;74.08;102562.69;5063935;28;20024;-78
2022/07/10 07:38:48;;;;;;;9.80;3.10;;;;;;;16.30;74.58;102560.78;5075379;28;20036;-77
2022/07/10 07:41:13;;;;;;;6.80;2.90;;;;;;;16.28;73.11;102555.53;5069765;28;20028;-78
2022/07/10 07:43:38;;;;;;;10.70;3.30;;;;;;;16.32;73.77;102559.53;5062552;28;20047;-81
2022/07/10 07:46:05;;;;;;;14.83;3.47;;;;;;;16.37;74.54;102545.22;5061686;28;20027;-77
2022/07/10 07:48:30;;;;;;;10.87;3.33;;;;;;;16.50;74.19;102555.34;5042372;28;20075;-79
2022/07/10 07:50:55;;;;;;;12.67;3.43;;;;;;;16.38;73.68;102555.94;5048446;28;20055;-77
2022/07/10 07:53:21;;;;;;;10.53;3.23;;;;;;;16.38;73.47;102555.94;5064474;28;20103;-77
2022/07/10 07:55:46;;;;;;;8.00;3.07;;;;;;;16.38;73.99;102553.22;5050096;28;20040;-80
2022/07/10 07:58:12;;;;;;;9.37;3.10;;;;;;;16.37;74.92;102553.44;5058212;28;20127;-78
2022/07/10 08:00:37;;;;;;;11.30;3.00;;;;;;;16.33;74.07;102555.75;5073681;28;20108;-77
2022/07/10 08:03:03;;;;;;;11.57;2.80;;;;;;;16.27;73.72;102556.56;5056638;28;20025;-78
2022/07/10 08:05:28;;;;;;;10.30;2.70;;;;;;;16.30;74.82;102555.31;5081087;28;20048;-79
2022/07/10 08:07:58;;;;;;;9.20;2.60;;;;;;;16.26;74.77;102565.81;5074573;28;20462;-80
2022/07/10 08:10:26;;;;;;;9.77;2.70;;;;;;;16.28;74.72;102558.28;5077378;28;22187;-77
2022/07/10 08:12:52;;;;;;;12.97;3.00;;;;;;;16.36;76.19;102571.75;5076878;28;20040;-79
2022/07/10 08:15:22;;;;;;;9.20;2.83;;;;;;;16.30;74.61;102556.16;5084184;28;20040;-77
2022/07/10 08:17:49;;;;;;;8.10;3.10;;;;;;;16.28;74.01;102558.28;5089178;28;20465;-78
2022/07/10 08:20:14;;;;;;;8.40;3.57;;;;;;;16.27;75.14;102556.56;5085381;28;20492;-78
2022/07/10 08:22:41;;;;;;;7.37;3.17;;;;;;;16.24;74.61;102551.53;5076430;28;20070;-78
2022/07/10 08:25:06;;;;;;;7.80;2.83;;;;;;;16.34;75.30;102540.19;5075282;28;20048;-80
2022/07/10 08:27:32;;;;;;;8.97;3.00;;;;;;;16.34;74.87;102545.66;5077181;28;20479;-80
2022/07/10 08:29:57;;;;;;;8.13;2.60;;;;;;;16.35;75.68;102550.91;5074309;28;20040;-80
2022/07/10 08:32:23;;;;;;;11.27;2.93;;;;;;;16.37;74.01;102558.91;5076312;28;20046;-79
2022/07/10 08:34:48;;;;;;;9.90;3.23;;;;;;;16.34;75.14;102557.41;5078142;28;20027;-78
2022/07/10 08:37:14;;;;;;;10.03;3.53;;;;;;;16.32;74.97;102553.22;5088369;28;20035;-77
2022/07/10 08:39:39;;;;;;;10.60;3.00;;;;;;;16.33;75.49;102547.56;5089476;28;20027;-76
2022/07/10 08:42:07;;;;;;;7.67;2.70;;;;;;;16.37;75.59;102548.81;5088645;28;20053;-77
2022/07/10 08:44:33;;;;;;;11.43;3.00;;;;;;;16.38;75.92;102545.00;5077107;28;20035;-78
2022/07/10 08:46:58;;;;;;;6.57;3.00;;;;;;;16.44;76.10;102557.03;5077094;28;20041;-78
2022/07/10 08:49:28;;;;;;;10.10;3.17;;;;;;;16.40;75.13;102552.16;5074594;28;20369;-81
2022/07/10 08:52:31;;;;;;;6.23;2.90;;;;;;;16.44;75.41;102550.69;5076583;28;20032;-79
2022/07/10 08:54:58;;;;;;;10.23;3.43;;;;;;;16.38;74.89;102564.16;5076234;28;20132;-80
2022/07/10 08:57:24;;;;;;;9.13;2.90;;;;;;;16.36;74.70;102560.81;5076051;28;20364;-79
2022/07/10 08:59:50;;;;;;;10.93;3.27;;;;;;;16.38;75.42;102557.84;5076332;28;20043;-78
2022/07/10 09:02:15;;;;;;;9.00;3.20;;;;;;;16.37;75.55;102551.56;5073462;28;20058;-77
2022/07/10 09:04:41;;;;;;;6.47;3.13;;;;;;;16.36;74.73;102558.06;5074025;28;20187;-79
2022/07/10 09:07:06;;;;;;;6.23;2.70;;;;;;;16.37;75.01;102561.63;5052491;28;20043;-77
2022/07/10 09:09:32;;;;;;;10.47;3.40;;;;;;;16.43;75.40;102559.94;5063674;28;20064;-79
2022/07/10 09:11:58;;;;;;;7.37;3.30;;;;;;;16.42;75.54;102558.28;5061434;28;20526;-77
2022/07/10 09:14:27;;;;;;;6.23;3.00;;;;;;;16.44;74.98;102553.44;5061611;28;20077;-79
2022/07/10 09:16:53;;;;;;;7.33;3.30;;;;;;;16.46;74.80;102549.44;5060177;28;20048;-79
2022/07/10 09:19:20;;;;;;;9.83;3.20;;;;;;;16.54;75.25;102551.13;5046516;28;20057;-78
2022/07/10 09:21:51;;;;;;;8.80;2.80;;;;;;;16.61;74.63;102548.41;5057001;28;20039;-79
2022/07/10 09:24:19;;;;;;;7.07;2.87;;;;;;;16.68;74.49;102541.03;5059952;28;20039;-77
2022/07/10 09:26:59;;;;;;;7.60;3.10;;;;;;;16.83;74.57;102527.13;5040121;28;20667;-81
2022/07/10 09:29:25;;;;;;;9.00;3.00;;;;;;;16.87;73.09;102531.09;5058544;28;20035;-80
2022/07/10 09:31:58;;;;;;;7.70;3.30;;;;;;;16.95;74.19;102535.56;5056256;28;20037;-79
2022/07/10 09:34:36;;;;;;;6.93;3.00;;;;;;;16.98;74.08;102532.38;5057054;28;20119;-77
2022/07/10 09:37:28;;;;;;;6.67;2.97;;;;;;;17.01;74.40;102531.94;5058017;28;20063;-77
2022/07/10 09:39:58;;;;;;;6.40;3.00;;;;;;;16.96;73.38;102520.78;5036649;28;20045;-85
2022/07/10 09:42:26;;;;;;;7.23;2.70;;;;;;;17.00;73.16;102528.38;5061144;28;20029;-79
2022/07/10 09:44:52;;;;;;;8.03;2.63;;;;;;;17.06;72.94;102525.84;5061285;28;20403;-81
2022/07/10 09:47:23;;;;;;;6.97;2.83;;;;;;;17.25;74.63;102521.38;5060068;28;20063;-77
2022/07/10 09:49:49;;;;;;;6.23;2.80;;;;;;;17.47;74.46;102517.25;5042829;28;20033;-77
2022/07/10 09:52:18;;;;;;;7.43;2.90;;;;;;;17.49;71.89;102525.28;5059743;28;20075;-79
2022/07/10 09:54:44;;;;;;;7.90;2.87;;;;;;;17.46;72.65;102518.34;5068599;28;20032;-78
2022/07/10 09:57:12;;;;;;;6.57;2.93;;;;;;;17.32;71.98;102514.78;5058551;28;20032;-83
2022/07/10 09:59:39;;;;;;;11.17;3.70;;;;;;;17.26;70.82;102525.78;5055010;28;20750;-79
2022/07/10 10:02:07;;;;;;;10.33;3.60;;;;;;;17.26;72.13;102523.88;5037200;28;20044;-80
2022/07/10 10:04:35;;;;;;;8.57;3.63;;;;;;;17.35;71.96;102525.34;5060740;28;20377;-81
2022/07/10 10:07:01;;;;;;;7.83;4.00;;;;;;;17.56;71.77;102523.34;5076421;28;20039;-83
2022/07/10 10:09:56;;;;;;;8.20;3.83;;;;;;;17.81;71.93;102520.69;5074050;28;20035;-79
2022/07/10 10:12:28;;;;;;;7.87;3.90;;;;;;;17.88;70.05;102526.13;5074220;28;20044;-81
2022/07/10 10:14:53;;;;;;;8.07;3.60;;;;;;;17.99;68.92;102530.09;5076213;28;20135;-83
2022/07/10 10:17:20;;;;;;;16.07;4.70;;;;;;;18.13;70.29;102518.00;5076674;28;20032;-79
2022/07/10 10:22:31;;;;;;;;;;;;;;;18.49;68.08;102523.84;5078638;28;20073;-78
2022/07/10 10:24:57;;;;;;;4.72;2.70;;;;;;;18.23;67.23;102507.34;5078981;28;19924;-81
2022/07/10 10:27:23;;;;;;;8.03;2.90;;;;;;;18.27;68.65;102515.97;5078153;28;20039;-80
2022/07/10 10:29:51;;;;;;;6.30;2.60;;;;;;;18.35;68.12;102507.47;5079068;28;20068;-79
2022/07/10 10:32:16;;;;;;;6.00;2.85;;;;;;;18.42;68.70;102514.81;5077823;28;20032;-80
2022/07/10 10:34:43;;;;;;;8.50;2.72;;;;;;;18.41;67.95;102511.22;5079163;28;20043;-79
2022/07/10 10:37:27;;;;;;;7.80;2.90;;;;;;;18.73;69.00;102517.47;5079222;28;20123;-79
2022/07/10 10:39:56;;;;;;;6.18;2.38;;;;;;;18.86;68.44;102512.91;5079459;28;20032;-79
2022/07/10 10:42:32;;;;;;;3.70;2.20;;;;;;;18.84;66.11;102515.91;5078931;28;20484;-80
2022/07/10 10:45:23;;;;;;;5.93;2.42;;;;;;;19.03;66.92;102514.03;5077224;28;20375;-80
2022/07/10 10:48:04;;;;;;;4.88;2.30;;;;;;;19.03;65.58;102503.06;5079378;28;20131;-80
2022/07/10 10:50:49;;;;;;;6.45;2.65;;;;;;;19.36;67.18;102506.47;5066451;28;20066;-79
2022/07/10 10:53:16;;;;;;;7.00;2.67;;;;;;;19.45;65.79;102501.50;5078943;28;20151;-79
2022/07/10 10:56:01;;;;;;;5.10;2.67;;;;;;;19.57;66.20;102488.66;5078311;28;20039;-81
2022/07/10 10:58:35;;;;;;;5.75;2.58;;;;;;;19.37;66.35;102497.16;5078322;28;20024;-78
2022/07/10 11:01:28;;;;;;;5.50;2.67;;;;;;;19.60;65.29;102495.59;5076831;28;20498;-80
2022/07/10 11:04:08;;;;;;;7.20;2.33;;;;;;;19.56;65.93;102497.97;5073716;28;20079;-79
2022/07/10 11:06:52;;;;;;;4.70;2.35;;;;;;;19.57;64.17;102486.75;5079379;28;20071;-81
2022/07/10 11:09:33;;;;;;;;;;;;;;;19.78;64.12;102486.47;5078742;28;20434;-82
2022/07/10 11:11:59;;;;;;;5.57;2.50;;;;;;;19.53;63.11;102485.53;5078159;28;19969;-81
2022/07/10 11:14:28;;;;;;;5.53;2.40;;;;;;;19.39;63.67;102489.53;5078439;28;20479;-80
2022/07/10 11:16:55;;;;;;;6.70;2.40;;;;;;;19.37;65.49;102488.94;5078474;28;20056;-80
2022/07/10 11:19:22;;;;;;;7.55;2.53;;;;;;;19.30;62.71;102497.25;5078584;28;20108;-82
2022/07/10 11:21:54;;;;;;;5.72;2.30;;;;;;;19.35;63.20;102489.16;5078613;28;20119;-81
2022/07/10 11:24:37;;;;;;;4.60;2.38;;;;;;;19.36;62.84;102485.31;5077404;28;20040;-80
2022/07/10 11:27:19;;;;;;;6.05;2.47;;;;;;;19.25;63.49;102504.50;5076539;28;20032;-80
2022/07/10 11:29:47;;;;;;;4.65;2.30;;;;;;;19.17;63.34;102491.91;5074572;28;20043;-83
2022/07/10 11:32:16;;;;;;;3.35;2.20;;;;;;;19.10;64.16;102481.00;5075711;28;20497;-79
2022/07/10 11:34:41;;;;;;;5.47;2.53;;;;;;;19.15;64.04;102478.41;5077514;28;20038;-81